Aviation Digital Data Service (ADDS)

Output produced by METARs form (0153 UTC 22 June 2018)
found at http://www.aviationweather.gov/adds/metars/
 
METAR text: RODN 220056Z AUTO 20016G23KT 10SM CLR 31/26 A2980 RMK AO2 SLP096 T03050262 $
Conditions at: RODN (KADENA (USAFB-NA, JP) observed 0056 UTC 22 June 2018
Temperature: 30.5°C (87°F)
Dewpoint: 26.2°C (79°F) [RH = 78%]
Pressure (altimeter): 29.80 inches Hg (1009.2 mb)
[Sea-level pressure: 1009.6 mb]
Winds: from the SSW (200 degrees) at 18 MPH (16 knots; 8.3 m/s)
gusting to 26 MPH (23 knots; 12.0 m/s)
Visibility: 10 or more miles (16+ km)
Ceiling: at least 12,000 feet AGL
Clouds: sky clear below 12,000 feet AGL
Weather:
SOME DATA ABOVE MAY BE INACCURATE!!!
"$" is an indication the sensor requires maintenance

METAR text: ROTM 220147Z AUTO 21016G25KT 10SM SCT020 SCT026 SCT030 31/26 A2982 RMK AO2 T03060256
Conditions at: ROTM (FUTENMA(US-MCAS), JP) observed 0147 UTC 22 June 2018
Temperature: 30.6°C (87°F)
Dewpoint: 25.6°C (78°F) [RH = 75%]
Pressure (altimeter): 29.82 inches Hg (1009.9 mb)
Winds: from the SSW (210 degrees) at 18 MPH (16 knots; 8.3 m/s)
gusting to 29 MPH (25 knots; 13.0 m/s)
Visibility: 10 or more miles (16+ km)
Ceiling: at least 12,000 feet AGL
Clouds: scattered clouds at 2000 feet AGL
scattered clouds at 2600 feet AGL
scattered clouds at 3000 feet AGL
Weather: automated observation with no human augmentation;
there may or may not be significant weather present at this time

METAR text: ROAH 220130Z 20013KT 9999 FEW010 SCT/// 30/26 Q1009
Conditions at: ROAH (NAHA (CIV/JASDF), JP) observed 0130 UTC 22 June 2018
Temperature: 30.0°C (86°F)
Dewpoint: 26.0°C (79°F) [RH = 79%]
Pressure (altimeter): 29.79 inches Hg (1009.0 mb)
Winds: from the SSW (200 degrees) at 15 MPH (13 knots; 6.8 m/s)
Visibility: 6 or more miles (10+ km)
Ceiling: at least 12,000 feet AGL
Clouds: few clouds at 1000 feet AGL
Weather: no significant weather observed at this time